createdAt,value
2017-08-09T00:00:32.373Z,70.83
2017-08-09T00:01:39.399Z,70.37
2017-08-09T00:02:45.442Z,70.54
2017-08-09T00:03:53.484Z,70.30
2017-08-09T00:04:59.526Z,70.65
2017-08-09T00:06:06.667Z,70.67
2017-08-09T00:07:14.663Z,70.75
2017-08-09T00:08:20.702Z,70.33
2017-08-09T00:09:27.739Z,70.97
2017-08-09T00:10:35.002Z,70.50
2017-08-09T00:11:41.579Z,70.74
2017-08-09T00:12:48.670Z,70.77
2017-08-09T00:13:55.710Z,70.40
2017-08-09T00:15:02.774Z,70.71
2017-08-09T00:16:10.571Z,70.10
2017-08-09T00:17:16.635Z,70.50
2017-08-09T00:18:23.839Z,70.38
2017-08-09T00:19:30.468Z,70.79
2017-08-09T00:20:37.539Z,70.66
2017-08-09T00:21:45.420Z,70.60
2017-08-09T00:22:52.407Z,70.22
2017-08-09T00:24:00.462Z,70.83
2017-08-09T00:25:06.318Z,70.79
2017-08-09T00:26:12.619Z,70.70
2017-08-09T00:27:19.223Z,70.96
2017-08-09T00:28:27.278Z,71.07
2017-08-09T00:29:33.343Z,71.15
2017-08-09T00:30:41.341Z,71.06
2017-08-09T00:31:47.391Z,71.00
2017-08-09T00:32:54.482Z,71.23
2017-08-09T00:34:01.642Z,71.14
2017-08-09T00:35:08.744Z,71.65
2017-08-09T00:36:15.785Z,71.92
2017-08-09T00:37:23.626Z,71.70
2017-08-09T00:38:29.702Z,71.42
2017-08-09T00:39:37.543Z,71.61
2017-08-09T00:40:43.579Z,71.99
2017-08-09T00:41:50.662Z,72.02
2017-08-09T00:42:57.747Z,71.96
2017-08-09T00:44:04.773Z,71.99
2017-08-09T00:45:13.814Z,71.51
2017-08-09T00:46:18.923Z,72.01
2017-08-09T00:47:26.755Z,71.76
2017-08-09T00:48:32.815Z,72.12
2017-08-09T00:49:41.811Z,71.56
2017-08-09T00:50:47.715Z,71.54
2017-08-09T00:51:53.754Z,71.91
2017-08-09T00:53:00.823Z,72.26
2017-08-09T00:54:09.835Z,71.71
2017-08-09T00:55:14.883Z,72.29
2017-08-09T00:56:21.935Z,71.99
2017-08-09T00:57:29.771Z,72.26
2017-08-09T00:58:35.822Z,71.72
2017-08-09T00:59:43.808Z,72.14
2017-08-09T01:00:49.830Z,72.48
2017-08-09T01:01:56.863Z,72.46
2017-08-09T01:03:05.914Z,71.73
2017-08-09T01:04:11.910Z,71.90
2017-08-09T01:05:18.859Z,72.07
2017-08-09T01:06:24.919Z,71.79
2017-08-09T01:07:31.975Z,71.82
2017-08-09T01:08:39.283Z,71.66
2017-08-09T01:09:45.838Z,72.02
2017-08-09T01:10:52.872Z,71.86
2017-08-09T01:11:59.899Z,71.64
2017-08-09T01:13:06.931Z,72.21
2017-08-09T01:14:13.998Z,71.86
2017-08-09T01:15:21.034Z,71.84
2017-08-09T01:16:28.903Z,71.83
2017-08-09T01:17:34.930Z,72.71
2017-08-09T01:18:42.315Z,72.27
2017-08-09T01:19:49.858Z,72.29
2017-08-09T01:20:57.866Z,72.07
2017-08-09T01:22:02.902Z,72.54
2017-08-09T01:23:11.936Z,72.61
2017-08-09T01:24:17.196Z,73.21
2017-08-09T01:25:23.808Z,72.57
2017-08-09T01:26:30.850Z,72.45
2017-08-09T01:27:38.107Z,72.21
2017-08-09T01:28:46.651Z,72.57
2017-08-09T01:29:51.694Z,73.32
2017-08-09T01:30:58.722Z,73.00
2017-08-09T01:32:06.756Z,72.47
2017-08-09T01:33:14.600Z,73.30
2017-08-09T01:34:19.647Z,73.42
2017-08-09T01:35:26.698Z,73.15
2017-08-09T01:36:33.742Z,73.13
2017-08-09T01:37:40.778Z,73.06
2017-08-09T01:38:48.630Z,72.62
2017-08-09T01:39:54.679Z,72.81
2017-08-09T01:41:03.819Z,73.63
2017-08-09T01:42:08.871Z,72.70
2017-08-09T01:43:15.906Z,72.86
2017-08-09T01:44:22.990Z,72.86
2017-08-09T01:45:30.992Z,73.77
2017-08-09T01:46:37.107Z,73.60
2017-08-09T01:47:44.159Z,73.30
2017-08-09T01:48:52.107Z,73.70
2017-08-09T01:49:59.094Z,72.88
2017-08-09T01:51:05.179Z,72.90
2017-08-09T01:52:12.199Z,72.96
2017-08-09T01:53:20.207Z,73.92
2017-08-09T01:54:26.242Z,73.85
2017-08-09T01:55:33.320Z,74.36
2017-08-09T01:56:40.416Z,73.53
2017-08-09T01:57:48.405Z,73.92
2017-08-09T01:58:54.469Z,73.76
2017-08-09T02:00:01.771Z,74.43
2017-08-09T02:01:09.294Z,74.58
2017-08-09T02:02:15.342Z,73.75
2017-08-09T02:03:24.407Z,74.08
2017-08-09T02:04:30.379Z,73.91
2017-08-09T02:05:36.430Z,73.71
2017-08-09T02:06:44.402Z,74.16
2017-08-09T02:07:50.507Z,74.86
2017-08-09T02:08:58.518Z,74.44
2017-08-09T02:10:04.582Z,74.70
2017-08-09T02:11:11.612Z,74.59
2017-08-09T02:12:18.655Z,74.56
2017-08-09T02:13:26.587Z,75.03
2017-08-09T02:14:32.629Z,74.87
2017-08-09T02:15:40.677Z,74.98
2017-08-09T02:16:47.583Z,74.21
2017-08-09T02:17:53.638Z,74.78
2017-08-09T02:19:00.682Z,74.95
2017-08-09T02:20:07.794Z,74.44
2017-08-09T02:21:14.843Z,74.47
2017-08-09T02:22:21.882Z,74.39
2017-08-09T02:23:28.945Z,75.22
2017-08-09T02:24:35.994Z,74.80
2017-08-09T02:25:43.031Z,75.30
2017-08-09T02:26:50.474Z,75.46
2017-08-09T02:27:57.025Z,75.33
2017-08-09T02:29:04.082Z,74.82
2017-08-09T02:30:11.124Z,75.12
2017-08-09T02:31:18.412Z,75.39
2017-08-09T02:32:24.974Z,75.38
2017-08-09T02:33:32.003Z,75.54
2017-08-09T02:34:39.060Z,75.07
2017-08-09T02:35:46.106Z,75.84
2017-08-09T02:36:53.155Z,76.05
2017-08-09T02:38:02.178Z,75.60
2017-08-09T02:39:07.245Z,76.24
2017-08-09T02:40:15.160Z,75.66
2017-08-09T02:41:22.010Z,76.28
2017-08-09T02:42:28.079Z,76.35
2017-08-09T02:43:36.255Z,76.42
2017-08-09T02:44:42.658Z,76.74
2017-08-09T02:45:51.736Z,76.62
2017-08-09T02:46:58.859Z,76.82
2017-08-09T02:48:02.919Z,76.50
2017-08-09T02:49:09.962Z,76.33
2017-08-09T02:50:17.030Z,76.56
2017-08-09T02:51:24.134Z,76.62
2017-08-09T02:52:31.304Z,76.67
2017-08-09T02:53:38.809Z,77.23
2017-08-09T02:54:44.874Z,76.90
2017-08-09T02:55:52.007Z,77.01
2017-08-09T02:56:59.064Z,76.96
2017-08-09T02:58:06.277Z,77.07
2017-08-09T02:59:13.799Z,77.07
2017-08-09T03:00:21.806Z,77.19
2017-08-09T03:01:27.698Z,77.32
2017-08-09T03:02:38.619Z,77.17
2017-08-09T03:03:41.623Z,77.58
2017-08-09T03:04:47.671Z,77.52
2017-08-09T03:05:54.713Z,77.83
2017-08-09T03:07:01.851Z,77.58
2017-08-09T03:08:08.907Z,77.33
2017-08-09T03:09:15.976Z,77.17
2017-08-09T03:10:23.006Z,77.58
2017-08-09T03:11:30.075Z,77.62
2017-08-09T03:12:37.115Z,78.10
2017-08-09T03:13:44.148Z,77.58
2017-08-09T03:14:51.182Z,77.96
2017-08-09T03:15:58.218Z,77.60
2017-08-09T03:17:05.275Z,78.37
2017-08-09T03:18:12.329Z,77.94
2017-08-09T03:19:19.363Z,78.21
2017-08-09T03:20:26.395Z,78.15
2017-08-09T03:21:37.436Z,78.04
2017-08-09T03:22:40.468Z,78.09
2017-08-09T03:23:47.503Z,77.85
2017-08-09T03:24:54.539Z,78.41
2017-08-09T03:26:01.579Z,78.47
2017-08-09T03:27:08.639Z,78.46
2017-08-09T03:28:15.666Z,78.63
2017-08-09T03:29:22.694Z,77.99
2017-08-09T03:30:29.735Z,78.35
2017-08-09T03:31:36.775Z,78.67
2017-08-09T03:32:44.082Z,78.58
2017-08-09T03:33:50.707Z,78.24
2017-08-09T03:34:57.764Z,78.21
2017-08-09T03:36:04.804Z,79.00
2017-08-09T03:37:11.842Z,78.81
2017-08-09T03:38:18.889Z,78.54
2017-08-09T03:39:25.935Z,78.85
2017-08-09T03:40:33.004Z,78.68
2017-08-09T03:41:40.045Z,78.30
2017-08-09T03:42:47.097Z,79.02
2017-08-09T03:43:54.151Z,79.19
2017-08-09T03:45:01.191Z,78.74
2017-08-09T03:46:08.230Z,79.33
2017-08-09T03:47:15.283Z,79.19
2017-08-09T03:48:22.338Z,78.97
2017-08-09T03:49:29.383Z,78.84
2017-08-09T03:50:36.419Z,79.08
2017-08-09T03:51:43.471Z,79.10
2017-08-09T03:52:50.503Z,79.57
2017-08-09T03:53:57.554Z,79.44
2017-08-09T03:55:04.582Z,79.58
2017-08-09T03:56:11.615Z,79.65
2017-08-09T03:57:18.687Z,79.28
2017-08-09T03:58:25.756Z,79.21
2017-08-09T03:59:32.791Z,79.81
2017-08-09T04:00:39.864Z,79.33
2017-08-09T04:01:46.914Z,79.34
2017-08-09T04:02:53.960Z,79.62
2017-08-09T04:04:01.010Z,79.62
2017-08-09T04:05:08.053Z,79.56
2017-08-09T04:06:15.098Z,79.53
2017-08-09T04:07:22.163Z,79.57
2017-08-09T04:08:29.220Z,79.73
2017-08-09T04:09:39.323Z,80.05
2017-08-09T04:10:43.358Z,79.97
2017-08-09T04:11:50.417Z,80.35
2017-08-09T04:12:57.459Z,80.35
2017-08-09T04:14:04.503Z,80.27
2017-08-09T04:15:11.570Z,80.06
2017-08-09T04:16:18.662Z,80.23
2017-08-09T04:17:25.702Z,80.10
2017-08-09T04:18:32.750Z,80.19
2017-08-09T04:19:39.779Z,80.05
2017-08-09T04:20:46.850Z,80.21
2017-08-09T04:21:53.928Z,80.25
2017-08-09T04:23:00.974Z,80.33
2017-08-09T04:24:08.022Z,80.32
2017-08-09T04:25:15.091Z,80.46
2017-08-09T04:26:22.169Z,80.23
2017-08-09T04:27:29.243Z,80.50
2017-08-09T04:28:36.335Z,80.41
2017-08-09T04:29:43.379Z,80.43
2017-08-09T04:30:50.450Z,80.66
2017-08-09T04:31:57.482Z,80.90
2017-08-09T04:33:04.504Z,80.93
2017-08-09T04:34:11.523Z,80.89
2017-08-09T04:35:18.568Z,81.22
2017-08-09T04:36:25.615Z,80.96
2017-08-09T04:37:32.684Z,81.12
2017-08-09T04:38:39.723Z,81.06
2017-08-09T04:39:46.768Z,81.19
2017-08-09T04:40:53.806Z,81.16
2017-08-09T04:42:00.872Z,81.05
2017-08-09T04:43:07.915Z,81.23
2017-08-09T04:44:14.962Z,81.33
2017-08-09T04:45:21.991Z,81.33
2017-08-09T04:46:29.055Z,81.26
2017-08-09T04:47:36.086Z,81.24
2017-08-09T04:48:43.110Z,81.62
2017-08-09T04:49:50.146Z,81.57
2017-08-09T04:50:57.184Z,81.51
2017-08-09T04:52:04.254Z,81.55
2017-08-09T04:53:11.288Z,81.39
2017-08-09T04:54:18.331Z,81.50
2017-08-09T04:55:25.380Z,81.86
2017-08-09T04:56:32.455Z,81.86
2017-08-09T04:57:39.494Z,81.61
2017-08-09T04:58:46.534Z,81.63
2017-08-09T04:59:53.560Z,81.63
2017-08-09T05:01:00.591Z,81.41
2017-08-09T05:02:07.650Z,81.57
2017-08-09T05:03:14.678Z,81.41
2017-08-09T05:04:21.706Z,81.51
2017-08-09T05:05:28.735Z,81.58
2017-08-09T05:06:35.802Z,81.43
2017-08-09T05:07:42.834Z,81.03
2017-08-09T05:08:49.879Z,81.34
2017-08-09T05:09:56.902Z,81.22
2017-08-09T05:11:03.934Z,81.29
2017-08-09T05:12:10.975Z,81.09
2017-08-09T05:13:18.016Z,80.99
2017-08-09T05:14:25.055Z,80.94
2017-08-09T05:15:32.070Z,80.77
2017-08-09T05:16:39.102Z,81.20
2017-08-09T05:17:46.147Z,81.07
2017-08-09T05:18:53.178Z,80.77
2017-08-09T05:20:00.202Z,80.66
2017-08-09T05:21:07.234Z,81.09
2017-08-09T05:22:14.279Z,80.73
2017-08-09T05:23:21.331Z,80.89
2017-08-09T05:24:28.366Z,80.57
2017-08-09T05:25:35.417Z,80.70
2017-08-09T05:26:42.449Z,80.30
2017-08-09T05:27:49.518Z,80.59
2017-08-09T05:28:56.567Z,80.68
2017-08-09T05:30:03.598Z,80.52
2017-08-09T05:31:10.636Z,79.95
2017-08-09T05:32:17.667Z,80.18
2017-08-09T05:33:24.738Z,79.99
2017-08-09T05:34:31.770Z,80.47
2017-08-09T05:35:38.810Z,80.51
2017-08-09T05:36:45.834Z,80.40
2017-08-09T05:37:52.927Z,80.31
2017-08-09T05:38:59.995Z,80.12
2017-08-09T05:40:07.027Z,80.21
2017-08-09T05:41:14.096Z,79.60
2017-08-09T05:42:21.149Z,80.72
2017-08-09T05:43:28.200Z,79.83
2017-08-09T05:44:35.240Z,80.10
2017-08-09T05:45:42.287Z,80.52
2017-08-09T05:46:49.334Z,79.82
2017-08-09T05:47:56.366Z,79.93
2017-08-09T05:49:03.418Z,79.95
2017-08-09T05:50:10.467Z,79.90
2017-08-09T05:51:17.515Z,80.05
2017-08-09T05:52:24.554Z,79.65
2017-08-09T05:53:31.607Z,79.88
2017-08-09T05:54:38.645Z,79.55
2017-08-09T05:55:45.680Z,79.42
2017-08-09T05:56:52.703Z,79.84
2017-08-09T05:57:59.752Z,79.50
2017-08-09T05:59:06.808Z,79.90
2017-08-09T06:00:13.839Z,79.22
2017-08-09T06:01:20.887Z,79.23
2017-08-09T06:02:27.926Z,79.66
2017-08-09T06:03:34.959Z,79.60
2017-08-09T06:04:42.011Z,79.77
2017-08-09T06:05:49.051Z,79.15
2017-08-09T06:06:56.083Z,79.51
2017-08-09T06:08:03.135Z,78.85
2017-08-09T06:09:10.183Z,79.10
2017-08-09T06:10:17.234Z,79.23
2017-08-09T06:11:24.271Z,79.64
2017-08-09T06:12:31.303Z,79.41
2017-08-09T06:13:38.351Z,79.60
2017-08-09T06:14:45.402Z,79.19
2017-08-09T06:15:52.447Z,79.19
2017-08-09T06:16:59.484Z,78.77
2017-08-09T06:18:06.535Z,79.22
2017-08-09T06:19:13.583Z,78.50
2017-08-09T06:20:20.626Z,78.91
2017-08-09T06:21:27.654Z,78.98
2017-08-09T06:22:34.702Z,78.82
2017-08-09T06:23:41.736Z,78.86
2017-08-09T06:24:48.822Z,78.43
2017-08-09T06:25:55.859Z,78.58
2017-08-09T06:27:02.899Z,78.52
2017-08-09T06:28:09.922Z,78.04
2017-08-09T06:29:16.952Z,78.38
2017-08-09T06:30:23.990Z,78.18
2017-08-09T06:31:31.044Z,77.81
2017-08-09T06:32:38.071Z,77.52
2017-08-09T06:33:45.118Z,77.89
2017-08-09T06:34:52.151Z,76.92
2017-08-09T06:35:59.183Z,77.79
2017-08-09T06:37:06.240Z,77.43
2017-08-09T06:38:13.290Z,77.69
2017-08-09T06:39:20.315Z,77.26
2017-08-09T06:40:27.382Z,77.03
2017-08-09T06:41:34.426Z,76.98
2017-08-09T06:42:41.468Z,76.64
2017-08-09T06:43:48.502Z,77.45
2017-08-09T06:44:55.569Z,76.36
2017-08-09T06:46:02.622Z,76.16
2017-08-09T06:47:09.675Z,76.06
2017-08-09T06:48:16.721Z,76.20
2017-08-09T06:49:25.803Z,76.51
2017-08-09T06:50:30.867Z,76.44
2017-08-09T06:51:37.915Z,75.83
2017-08-09T06:52:46.224Z,75.29
2017-08-09T06:53:53.502Z,75.32
2017-08-09T06:54:58.915Z,75.09
2017-08-09T06:56:05.477Z,75.26
2017-08-09T06:57:12.543Z,74.96
2017-08-09T06:58:19.598Z,75.17
2017-08-09T06:59:26.646Z,74.53
2017-08-09T07:00:33.683Z,75.07
2017-08-09T07:01:40.730Z,74.70
2017-08-09T07:02:47.782Z,75.15
2017-08-09T07:03:54.817Z,74.46
2017-08-09T07:05:01.847Z,74.77
2017-08-09T07:06:08.882Z,74.89
2017-08-09T07:07:15.915Z,74.41
2017-08-09T07:08:22.983Z,74.39
2017-08-09T07:09:30.010Z,74.25
2017-08-09T07:10:37.055Z,74.87
2017-08-09T07:11:44.083Z,74.36
2017-08-09T07:12:51.148Z,73.82
2017-08-09T07:13:58.194Z,74.00
2017-08-09T07:15:05.242Z,73.94
2017-08-09T07:16:12.266Z,74.22
2017-08-09T07:17:19.314Z,73.83
2017-08-09T07:18:26.367Z,74.40
2017-08-09T07:19:33.411Z,74.70
2017-08-09T07:20:40.451Z,74.13
2017-08-09T07:21:47.492Z,74.49
2017-08-09T07:22:54.542Z,74.57
2017-08-09T07:24:01.600Z,74.13
2017-08-09T07:25:08.641Z,73.88
2017-08-09T07:26:15.698Z,73.99
2017-08-09T07:27:22.748Z,74.49
2017-08-09T07:28:29.795Z,74.36
2017-08-09T07:29:36.851Z,74.09
2017-08-09T07:30:43.898Z,74.78
2017-08-09T07:31:50.939Z,74.45
2017-08-09T07:32:57.970Z,74.33
2017-08-09T07:34:05.017Z,73.48
2017-08-09T07:35:12.058Z,73.55
2017-08-09T07:36:19.106Z,73.90
2017-08-09T07:37:26.139Z,73.36
2017-08-09T07:38:33.187Z,72.54
2017-08-09T07:39:40.239Z,72.61
2017-08-09T07:40:47.293Z,72.55
2017-08-09T07:41:54.339Z,72.96
2017-08-09T07:43:01.374Z,72.48
2017-08-09T07:44:08.430Z,72.36
2017-08-09T07:45:15.475Z,72.27
2017-08-09T07:46:22.509Z,71.49
2017-08-09T07:47:29.539Z,71.84
2017-08-09T07:48:36.586Z,71.28
2017-08-09T07:49:43.639Z,71.86
2017-08-09T07:50:50.679Z,71.89
2017-08-09T07:51:57.723Z,71.31
2017-08-09T07:53:04.782Z,71.58
2017-08-09T07:54:11.851Z,71.25
2017-08-09T07:55:18.892Z,70.27
2017-08-09T07:56:25.931Z,70.39
2017-08-09T07:57:32.963Z,70.51
2017-08-09T07:58:40.002Z,70.34
2017-08-09T07:59:47.051Z,70.74
2017-08-09T08:00:54.099Z,70.71
2017-08-09T08:02:01.131Z,70.56
2017-08-09T08:03:08.172Z,70.55
2017-08-09T08:04:15.210Z,70.39
2017-08-09T08:05:22.266Z,69.92
2017-08-09T08:06:29.306Z,69.99
2017-08-09T08:07:36.376Z,70.62
2017-08-09T08:08:43.423Z,70.33
2017-08-09T08:09:50.466Z,70.26
2017-08-09T08:10:57.530Z,70.29
2017-08-09T08:12:04.576Z,70.19
2017-08-09T08:13:11.610Z,70.46
2017-08-09T08:14:18.657Z,69.35
2017-08-09T08:15:25.694Z,69.04
2017-08-09T08:16:32.743Z,69.27
2017-08-09T08:17:39.771Z,69.62
2017-08-09T08:18:46.811Z,69.20
2017-08-09T08:19:53.843Z,69.46
2017-08-09T08:21:00.903Z,68.63
2017-08-09T08:22:07.939Z,68.57
2017-08-09T08:23:14.999Z,68.67
2017-08-09T08:24:22.035Z,68.77
2017-08-09T08:25:29.071Z,68.03
2017-08-09T08:26:36.138Z,67.09
2017-08-09T08:27:43.178Z,67.37
2017-08-09T08:28:50.211Z,67.38
2017-08-09T08:29:57.254Z,67.27
2017-08-09T08:31:04.300Z,67.53
2017-08-09T08:32:11.354Z,67.69
2017-08-09T08:33:18.396Z,67.74
2017-08-09T08:34:25.438Z,67.68
2017-08-09T08:35:32.466Z,67.63
2017-08-09T08:36:39.527Z,67.78
2017-08-09T08:37:46.580Z,67.75
2017-08-09T08:38:53.619Z,67.90
2017-08-09T08:40:00.661Z,67.77
2017-08-09T08:41:07.691Z,67.75
2017-08-09T08:42:14.738Z,67.00
2017-08-09T08:43:21.774Z,67.17
2017-08-09T08:44:28.803Z,67.31
2017-08-09T08:45:35.883Z,67.28
2017-08-09T08:46:42.920Z,66.92
2017-08-09T08:47:49.976Z,67.00
2017-08-09T08:48:57.358Z,66.62
2017-08-09T08:50:03.887Z,66.02
2017-08-09T08:51:10.907Z,65.94
2017-08-09T08:52:17.956Z,65.78
2017-08-09T08:53:25.006Z,65.51
2017-08-09T08:54:32.048Z,65.08
2017-08-09T08:55:39.095Z,65.00
2017-08-09T08:56:46.151Z,64.51
2017-08-09T08:57:53.243Z,64.85
2017-08-09T08:59:00.270Z,65.23
2017-08-09T09:00:07.296Z,65.01
2017-08-09T09:01:14.336Z,64.56
2017-08-09T09:02:21.383Z,65.00
2017-08-09T09:03:28.439Z,65.52
2017-08-09T09:04:35.488Z,65.71
2017-08-09T09:05:42.538Z,66.25
2017-08-09T09:06:49.579Z,65.54
2017-08-09T09:07:56.644Z,64.73
2017-08-09T09:09:03.739Z,64.21
2017-08-09T09:10:10.813Z,64.08
2017-08-09T09:11:17.874Z,64.76
2017-08-09T09:12:24.919Z,64.60
2017-08-09T09:13:31.969Z,64.68
2017-08-09T09:14:39.015Z,63.33
2017-08-09T09:15:46.059Z,63.84
2017-08-09T09:16:53.103Z,63.30
2017-08-09T09:18:00.163Z,62.78
2017-08-09T09:19:07.218Z,63.06
2017-08-09T09:20:14.251Z,63.16
2017-08-09T09:21:21.278Z,62.71
2017-08-09T09:22:28.311Z,62.96
2017-08-09T09:23:35.362Z,62.94
2017-08-09T09:24:42.410Z,63.07
2017-08-09T09:25:49.448Z,63.11
2017-08-09T09:26:56.480Z,62.20
2017-08-09T09:28:03.526Z,62.73
2017-08-09T09:29:10.575Z,63.35
2017-08-09T09:30:17.609Z,61.83
2017-08-09T09:31:24.647Z,61.14
2017-08-09T09:32:31.718Z,61.81
2017-08-09T09:33:38.754Z,60.79
2017-08-09T09:34:45.802Z,61.43
2017-08-09T09:35:52.847Z,61.42
2017-08-09T09:36:59.914Z,60.69
2017-08-09T09:38:06.947Z,60.80
2017-08-09T09:39:14.048Z,62.28
2017-08-09T09:40:21.088Z,61.80
2017-08-09T09:41:28.132Z,60.93
2017-08-09T09:42:35.162Z,60.44
2017-08-09T09:43:42.202Z,59.42
2017-08-09T09:44:49.251Z,58.35
2017-08-09T09:45:56.278Z,57.34
2017-08-09T09:47:03.311Z,57.38
2017-08-09T09:48:10.348Z,56.74
2017-08-09T09:49:17.378Z,56.37
2017-08-09T09:50:24.419Z,56.47
2017-08-09T09:51:31.450Z,55.74
2017-08-09T09:52:38.494Z,57.04
2017-08-09T09:53:45.595Z,55.99
2017-08-09T09:54:52.677Z,56.78
2017-08-09T09:55:59.706Z,57.23
2017-08-09T09:57:06.726Z,57.36
2017-08-09T09:58:13.758Z,56.22
2017-08-09T09:59:20.791Z,54.92
2017-08-09T10:00:27.842Z,55.55
2017-08-09T10:01:34.863Z,53.66
2017-08-09T10:02:41.927Z,53.54
2017-08-09T10:03:48.960Z,53.67
2017-08-09T10:04:55.984Z,53.51
2017-08-09T10:06:03.019Z,52.41
2017-08-09T10:07:10.076Z,52.54
2017-08-09T10:08:17.139Z,51.64
2017-08-09T10:09:24.191Z,51.85
2017-08-09T10:10:31.247Z,53.00
2017-08-09T10:11:38.302Z,51.77
2017-08-09T10:12:45.354Z,51.71
2017-08-09T10:13:52.407Z,51.92
2017-08-09T10:14:59.454Z,51.95
2017-08-09T10:16:06.543Z,51.26
2017-08-09T10:17:13.595Z,51.51
2017-08-09T10:18:20.639Z,50.71
2017-08-09T10:19:27.683Z,49.07
2017-08-09T10:20:34.736Z,48.29
2017-08-09T10:21:41.791Z,48.67
2017-08-09T10:22:48.847Z,48.46
2017-08-09T10:23:55.890Z,49.04
2017-08-09T10:25:02.926Z,48.87
2017-08-09T10:26:09.963Z,48.95
2017-08-09T10:27:17.004Z,48.56
2017-08-09T10:28:24.061Z,49.09
2017-08-09T10:29:31.111Z,49.37
2017-08-09T10:30:38.157Z,47.39
2017-08-09T10:31:45.255Z,48.32
2017-08-09T10:32:52.298Z,47.05
2017-08-09T10:33:59.322Z,46.27
2017-08-09T10:35:06.367Z,47.20
2017-08-09T10:36:13.395Z,46.56
2017-08-09T10:37:20.436Z,47.17
2017-08-09T10:38:27.493Z,46.95
2017-08-09T10:39:34.548Z,47.25
2017-08-09T10:40:41.599Z,47.26
2017-08-09T10:41:48.639Z,46.88
2017-08-09T10:42:55.700Z,45.80
2017-08-09T10:44:02.735Z,47.44
2017-08-09T10:45:09.766Z,47.50
2017-08-09T10:46:16.803Z,47.71
2017-08-09T10:47:23.858Z,47.53
2017-08-09T10:48:30.891Z,47.69
2017-08-09T10:49:37.934Z,46.61
2017-08-09T10:50:44.970Z,46.25
2017-08-09T10:51:52.008Z,46.29
2017-08-09T10:52:59.062Z,46.93
2017-08-09T10:54:06.096Z,47.00
2017-08-09T10:55:13.143Z,47.37
2017-08-09T10:56:20.195Z,47.99
2017-08-09T10:57:27.244Z,47.99
2017-08-09T10:58:34.305Z,48.32
2017-08-09T10:59:41.333Z,48.44
2017-08-09T11:00:48.379Z,48.22
2017-08-09T11:01:55.428Z,48.16
2017-08-09T11:03:02.470Z,46.63
2017-08-09T11:04:09.508Z,46.96
2017-08-09T11:05:16.546Z,47.80
2017-08-09T11:06:23.596Z,48.26
2017-08-09T11:07:30.622Z,47.85
2017-08-09T11:08:37.688Z,48.02
2017-08-09T11:09:44.714Z,47.86
2017-08-09T11:10:51.743Z,47.10
2017-08-09T11:11:58.768Z,47.01
2017-08-09T11:13:05.810Z,47.06
2017-08-09T11:14:12.870Z,45.98
2017-08-09T11:15:19.906Z,46.39
2017-08-09T11:16:26.936Z,47.29
2017-08-09T11:17:33.963Z,47.66
2017-08-09T11:18:41.004Z,47.51
2017-08-09T11:19:48.058Z,48.09
2017-08-09T11:20:55.084Z,48.47
2017-08-09T11:22:02.115Z,48.83
2017-08-09T11:23:09.138Z,48.87
2017-08-09T11:24:16.203Z,49.12
2017-08-09T11:25:23.251Z,48.65
2017-08-09T11:26:30.291Z,48.48
2017-08-09T11:27:37.379Z,48.79
2017-08-09T11:28:44.418Z,48.17
2017-08-09T11:29:51.478Z,48.15
2017-08-09T11:30:58.515Z,47.96
2017-08-09T11:32:05.539Z,48.62
2017-08-09T11:33:12.563Z,48.58
2017-08-09T11:34:19.595Z,48.63
2017-08-09T11:35:26.670Z,48.40
2017-08-09T11:36:33.712Z,48.37
2017-08-09T11:37:40.762Z,48.45
2017-08-09T11:38:47.801Z,48.87
2017-08-09T11:39:54.832Z,48.93
2017-08-09T11:41:01.888Z,48.18
2017-08-09T11:42:08.911Z,46.59
2017-08-09T11:43:15.943Z,46.62
2017-08-09T11:44:22.983Z,46.33
2017-08-09T11:45:30.038Z,47.08
2017-08-09T11:46:37.064Z,47.16
2017-08-09T11:47:44.104Z,46.84
2017-08-09T11:48:51.126Z,44.85
2017-08-09T11:49:58.166Z,45.75
2017-08-09T11:51:05.198Z,45.32
2017-08-09T11:52:12.226Z,46.43
2017-08-09T11:53:19.259Z,46.37
2017-08-09T11:54:26.290Z,45.92
2017-08-09T11:55:33.378Z,45.61
2017-08-09T11:56:40.424Z,45.05
2017-08-09T11:57:47.454Z,45.51
2017-08-09T11:58:54.514Z,45.88
2017-08-09T12:00:01.571Z,46.57
2017-08-09T12:01:08.627Z,46.74
2017-08-09T12:02:15.665Z,45.84
2017-08-09T12:03:22.702Z,46.55
2017-08-09T12:04:29.736Z,47.05
2017-08-09T12:05:36.765Z,47.36
2017-08-09T12:06:43.823Z,47.29
2017-08-09T12:07:50.883Z,47.00
2017-08-09T12:08:57.918Z,47.33
2017-08-09T12:10:04.975Z,47.27
2017-08-09T12:11:12.007Z,47.19
2017-08-09T12:12:19.059Z,47.36
2017-08-09T12:13:26.107Z,46.73
2017-08-09T12:14:33.139Z,46.48
2017-08-09T12:15:40.193Z,46.33
2017-08-09T12:16:47.239Z,47.15
2017-08-09T12:17:54.288Z,46.91
2017-08-09T12:19:01.324Z,46.76
2017-08-09T12:20:08.366Z,46.44
2017-08-09T12:21:15.424Z,47.05
2017-08-09T12:22:22.479Z,47.38
2017-08-09T12:23:29.519Z,46.66
2017-08-09T12:24:36.563Z,46.74
2017-08-09T12:25:43.616Z,46.62
2017-08-09T12:26:50.698Z,46.48
2017-08-09T12:27:57.779Z,45.66
2017-08-09T12:29:04.823Z,45.45
2017-08-09T12:30:11.858Z,45.20
2017-08-09T12:31:18.896Z,45.20
2017-08-09T12:32:25.942Z,45.55
2017-08-09T12:33:32.991Z,45.91
2017-08-09T12:34:40.036Z,45.74
2017-08-09T12:35:47.096Z,45.59
2017-08-09T12:36:54.150Z,45.57
2017-08-09T12:38:01.242Z,45.29
2017-08-09T12:39:08.278Z,42.76
2017-08-09T12:40:15.342Z,43.44
2017-08-09T12:41:22.383Z,44.07
2017-08-09T12:42:29.443Z,44.12
2017-08-09T12:43:36.486Z,44.43
2017-08-09T12:44:43.539Z,42.68
2017-08-09T12:45:50.583Z,43.69
2017-08-09T12:46:57.626Z,43.77
2017-08-09T12:48:04.667Z,43.16
2017-08-09T12:49:11.719Z,42.07
2017-08-09T12:50:18.759Z,43.21
2017-08-09T12:51:25.783Z,42.36
2017-08-09T12:52:32.818Z,41.49
2017-08-09T12:53:39.872Z,40.88
2017-08-09T12:54:46.843Z,41.38
2017-08-09T12:55:53.890Z,40.73
2017-08-09T12:57:00.940Z,39.42
2017-08-09T12:58:07.994Z,39.88
2017-08-09T12:59:15.052Z,40.70
2017-08-09T13:00:22.092Z,39.55
2017-08-09T13:01:29.128Z,39.12
2017-08-09T13:02:36.160Z,37.75
2017-08-09T13:03:43.198Z,39.45
2017-08-09T13:04:50.247Z,40.74
2017-08-09T13:05:57.287Z,40.68
2017-08-09T13:07:04.651Z,40.56
2017-08-09T13:08:11.166Z,39.99
2017-08-09T13:09:18.255Z,38.29
2017-08-09T13:10:25.304Z,39.23
2017-08-09T13:11:32.562Z,38.88
2017-08-09T13:12:39.892Z,39.00
2017-08-09T13:13:46.311Z,40.14
2017-08-09T13:14:53.394Z,40.40
2017-08-09T13:16:00.465Z,38.02
2017-08-09T13:17:07.514Z,39.41
2017-08-09T13:18:14.571Z,38.90
2017-08-09T13:19:21.674Z,39.01
2017-08-09T13:20:28.743Z,38.46
2017-08-09T13:21:35.787Z,39.10
2017-08-09T13:22:42.835Z,38.88
2017-08-09T13:23:49.894Z,39.41
2017-08-09T13:24:56.953Z,39.20
2017-08-09T13:26:04.019Z,39.28
2017-08-09T13:27:11.088Z,39.89
2017-08-09T13:28:18.139Z,39.99
2017-08-09T13:29:25.198Z,40.48
2017-08-09T13:30:32.268Z,40.51
2017-08-09T13:31:39.336Z,41.00
2017-08-09T13:32:46.411Z,41.07
2017-08-09T13:33:53.471Z,39.75
2017-08-09T13:35:00.525Z,40.03
2017-08-09T13:36:07.598Z,40.11
2017-08-09T13:37:15.163Z,40.03
2017-08-09T13:38:21.709Z,40.90
2017-08-09T13:39:28.775Z,40.08
2017-08-09T13:40:35.890Z,40.49
2017-08-09T13:41:42.959Z,40.87
2017-08-09T13:42:50.003Z,40.99
2017-08-09T13:43:57.064Z,40.91
2017-08-09T13:45:04.127Z,40.71
2017-08-09T13:46:11.226Z,39.29
2017-08-09T13:47:18.283Z,39.97
2017-08-09T13:48:25.335Z,40.35
2017-08-09T13:49:32.386Z,39.81
2017-08-09T13:50:39.421Z,40.64
2017-08-09T13:51:46.467Z,41.32
2017-08-09T13:52:53.563Z,41.53
2017-08-09T13:54:00.645Z,41.55
2017-08-09T13:55:07.682Z,41.08
2017-08-09T13:56:14.740Z,40.92
2017-08-09T13:57:21.790Z,40.14
2017-08-09T13:58:28.843Z,40.25
2017-08-09T13:59:35.890Z,39.31
2017-08-09T14:00:42.942Z,40.28
2017-08-09T14:01:49.991Z,41.72
2017-08-09T14:02:57.062Z,41.77
2017-08-09T14:04:04.122Z,40.56
2017-08-09T14:05:11.160Z,41.27
2017-08-09T14:06:18.220Z,41.32
2017-08-09T14:07:25.270Z,41.35
2017-08-09T14:08:32.348Z,40.59
2017-08-09T14:09:39.448Z,41.23
2017-08-09T14:10:46.490Z,42.03
2017-08-09T14:11:53.542Z,40.48
2017-08-09T14:13:00.719Z,40.85
2017-08-09T14:14:07.773Z,40.35
2017-08-09T14:15:14.865Z,40.70
2017-08-09T14:16:21.909Z,40.39
2017-08-09T14:17:29.159Z,40.31
2017-08-09T14:18:35.904Z,41.50
2017-08-09T14:19:43.007Z,41.83
2017-08-09T14:20:50.094Z,42.03
2017-08-09T14:21:57.167Z,42.54
2017-08-09T14:23:04.214Z,42.60